sensor_id;sensor_type;location;lat;lon;timestamp;P1;durP1;ratioP1;P2;durP2;ratioP2
20721;SDS011;10522;52.198;9.890;2023-04-28T00:00:52;9.70;;;3.53;;
20721;SDS011;10522;52.198;9.890;2023-04-28T00:03:18;5.00;;;3.23;;
20721;SDS011;10522;52.198;9.890;2023-04-28T00:05:43;7.60;;;3.20;;
20721;SDS011;10522;52.198;9.890;2023-04-28T00:08:10;7.50;;;3.03;;
20721;SDS011;10522;52.198;9.890;2023-04-28T00:10:36;7.80;;;3.37;;
20721;SDS011;10522;52.198;9.890;2023-04-28T00:13:01;6.93;;;2.90;;
20721;SDS011;10522;52.198;9.890;2023-04-28T00:15:27;4.63;;;3.20;;
20721;SDS011;10522;52.198;9.890;2023-04-28T00:17:53;7.77;;;3.17;;
20721;SDS011;10522;52.198;9.890;2023-04-28T00:20:19;5.67;;;3.07;;
20721;SDS011;10522;52.198;9.890;2023-04-28T00:22:45;4.53;;;3.43;;
20721;SDS011;10522;52.198;9.890;2023-04-28T00:25:10;9.27;;;3.53;;
20721;SDS011;10522;52.198;9.890;2023-04-28T00:27:36;8.47;;;3.63;;
20721;SDS011;10522;52.198;9.890;2023-04-28T00:30:02;6.53;;;3.43;;
20721;SDS011;10522;52.198;9.890;2023-04-28T00:32:27;6.37;;;3.30;;
20721;SDS011;10522;52.198;9.890;2023-04-28T00:34:53;7.27;;;3.60;;
20721;SDS011;10522;52.198;9.890;2023-04-28T00:37:19;5.27;;;3.57;;
20721;SDS011;10522;52.198;9.890;2023-04-28T00:39:45;7.57;;;3.90;;
20721;SDS011;10522;52.198;9.890;2023-04-28T00:42:13;9.83;;;3.57;;
20721;SDS011;10522;52.198;9.890;2023-04-28T00:44:39;7.23;;;3.87;;
20721;SDS011;10522;52.198;9.890;2023-04-28T00:47:05;6.77;;;3.27;;
20721;SDS011;10522;52.198;9.890;2023-04-28T00:49:33;5.23;;;3.10;;
20721;SDS011;10522;52.198;9.890;2023-04-28T00:52:03;4.50;;;3.30;;
20721;SDS011;10522;52.198;9.890;2023-04-28T00:54:31;5.97;;;3.20;;
20721;SDS011;10522;52.198;9.890;2023-04-28T00:57:00;6.17;;;3.70;;
20721;SDS011;10522;52.198;9.890;2023-04-28T00:59:29;5.73;;;3.33;;
20721;SDS011;10522;52.198;9.890;2023-04-28T01:01:55;9.23;;;3.83;;
20721;SDS011;10522;52.198;9.890;2023-04-28T01:04:21;6.20;;;3.40;;
20721;SDS011;10522;52.198;9.890;2023-04-28T01:06:51;5.67;;;3.37;;
20721;SDS011;10522;52.198;9.890;2023-04-28T01:09:17;8.43;;;3.40;;
20721;SDS011;10522;52.198;9.890;2023-04-28T01:11:43;5.83;;;3.30;;
20721;SDS011;10522;52.198;9.890;2023-04-28T01:14:09;9.80;;;3.30;;
20721;SDS011;10522;52.198;9.890;2023-04-28T01:16:34;5.67;;;3.70;;
20721;SDS011;10522;52.198;9.890;2023-04-28T01:19:02;6.53;;;3.90;;
20721;SDS011;10522;52.198;9.890;2023-04-28T01:21:31;10.20;;;3.60;;
20721;SDS011;10522;52.198;9.890;2023-04-28T01:23:57;7.53;;;4.43;;
20721;SDS011;10522;52.198;9.890;2023-04-28T01:26:23;6.87;;;3.63;;
20721;SDS011;10522;52.198;9.890;2023-04-28T01:28:49;8.70;;;3.60;;
20721;SDS011;10522;52.198;9.890;2023-04-28T01:31:14;5.70;;;3.50;;
20721;SDS011;10522;52.198;9.890;2023-04-28T01:33:40;6.53;;;4.23;;
20721;SDS011;10522;52.198;9.890;2023-04-28T01:36:06;5.83;;;3.47;;
20721;SDS011;10522;52.198;9.890;2023-04-28T01:38:32;6.07;;;3.63;;
20721;SDS011;10522;52.198;9.890;2023-04-28T01:40:58;7.80;;;4.03;;
20721;SDS011;10522;52.198;9.890;2023-04-28T01:43:24;6.13;;;3.67;;
20721;SDS011;10522;52.198;9.890;2023-04-28T01:45:49;11.80;;;4.20;;
20721;SDS011;10522;52.198;9.890;2023-04-28T01:48:15;8.70;;;4.17;;
20721;SDS011;10522;52.198;9.890;2023-04-28T01:50:41;5.27;;;3.80;;
20721;SDS011;10522;52.198;9.890;2023-04-28T01:53:07;9.20;;;3.70;;
20721;SDS011;10522;52.198;9.890;2023-04-28T01:55:32;7.90;;;4.07;;
20721;SDS011;10522;52.198;9.890;2023-04-28T01:57:58;7.33;;;3.93;;
20721;SDS011;10522;52.198;9.890;2023-04-28T02:00:23;6.53;;;4.40;;
20721;SDS011;10522;52.198;9.890;2023-04-28T02:02:49;9.27;;;4.30;;
20721;SDS011;10522;52.198;9.890;2023-04-28T02:05:15;6.03;;;3.80;;
20721;SDS011;10522;52.198;9.890;2023-04-28T02:07:40;7.97;;;4.10;;
20721;SDS011;10522;52.198;9.890;2023-04-28T02:10:06;7.23;;;4.27;;
20721;SDS011;10522;52.198;9.890;2023-04-28T02:12:32;5.43;;;3.70;;
20721;SDS011;10522;52.198;9.890;2023-04-28T02:14:58;9.17;;;4.10;;
20721;SDS011;10522;52.198;9.890;2023-04-28T02:17:24;7.33;;;4.20;;
20721;SDS011;10522;52.198;9.890;2023-04-28T02:19:54;5.67;;;4.20;;
20721;SDS011;10522;52.198;9.890;2023-04-28T02:22:20;6.63;;;4.07;;
20721;SDS011;10522;52.198;9.890;2023-04-28T02:24:46;8.83;;;4.50;;
20721;SDS011;10522;52.198;9.890;2023-04-28T02:27:12;8.63;;;4.17;;
20721;SDS011;10522;52.198;9.890;2023-04-28T02:29:38;10.00;;;3.83;;
20721;SDS011;10522;52.198;9.890;2023-04-28T02:32:03;8.53;;;4.07;;
20721;SDS011;10522;52.198;9.890;2023-04-28T02:34:29;5.80;;;4.07;;
20721;SDS011;10522;52.198;9.890;2023-04-28T02:36:54;5.20;;;3.77;;
20721;SDS011;10522;52.198;9.890;2023-04-28T02:39:20;9.93;;;4.50;;
20721;SDS011;10522;52.198;9.890;2023-04-28T02:41:49;8.83;;;4.10;;
20721;SDS011;10522;52.198;9.890;2023-04-28T02:44:15;8.37;;;4.47;;
20721;SDS011;10522;52.198;9.890;2023-04-28T02:46:41;8.63;;;4.33;;
20721;SDS011;10522;52.198;9.890;2023-04-28T02:49:06;6.30;;;4.33;;
20721;SDS011;10522;52.198;9.890;2023-04-28T02:51:32;9.80;;;3.90;;
20721;SDS011;10522;52.198;9.890;2023-04-28T02:53:57;7.30;;;3.80;;
20721;SDS011;10522;52.198;9.890;2023-04-28T02:56:23;8.00;;;4.13;;
20721;SDS011;10522;52.198;9.890;2023-04-28T02:58:48;6.07;;;3.53;;
20721;SDS011;10522;52.198;9.890;2023-04-28T03:01:14;9.07;;;3.90;;
20721;SDS011;10522;52.198;9.890;2023-04-28T03:03:40;7.93;;;4.43;;
20721;SDS011;10522;52.198;9.890;2023-04-28T03:06:06;5.70;;;4.40;;
20721;SDS011;10522;52.198;9.890;2023-04-28T03:08:31;7.27;;;3.90;;
20721;SDS011;10522;52.198;9.890;2023-04-28T03:10:57;9.53;;;4.80;;
20721;SDS011;10522;52.198;9.890;2023-04-28T03:13:22;10.77;;;5.20;;
20721;SDS011;10522;52.198;9.890;2023-04-28T03:15:49;8.80;;;4.67;;
20721;SDS011;10522;52.198;9.890;2023-04-28T03:18:14;6.73;;;4.17;;
20721;SDS011;10522;52.198;9.890;2023-04-28T03:20:41;9.60;;;4.70;;
20721;SDS011;10522;52.198;9.890;2023-04-28T03:23:06;7.13;;;4.50;;
20721;SDS011;10522;52.198;9.890;2023-04-28T03:25:32;10.47;;;4.97;;
20721;SDS011;10522;52.198;9.890;2023-04-28T03:27:57;9.87;;;4.73;;
20721;SDS011;10522;52.198;9.890;2023-04-28T03:30:23;9.23;;;5.53;;
20721;SDS011;10522;52.198;9.890;2023-04-28T03:32:49;14.73;;;6.00;;
20721;SDS011;10522;52.198;9.890;2023-04-28T03:35:14;11.90;;;6.37;;
20721;SDS011;10522;52.198;9.890;2023-04-28T03:37:40;7.00;;;5.03;;
20721;SDS011;10522;52.198;9.890;2023-04-28T03:40:05;9.60;;;6.50;;
20721;SDS011;10522;52.198;9.890;2023-04-28T03:42:32;8.90;;;5.67;;
20721;SDS011;10522;52.198;9.890;2023-04-28T03:44:57;10.47;;;4.80;;
20721;SDS011;10522;52.198;9.890;2023-04-28T03:47:23;9.20;;;5.03;;
20721;SDS011;10522;52.198;9.890;2023-04-28T03:49:48;8.30;;;4.83;;
20721;SDS011;10522;52.198;9.890;2023-04-28T03:52:14;12.10;;;4.87;;
20721;SDS011;10522;52.198;9.890;2023-04-28T03:54:40;9.23;;;4.50;;
20721;SDS011;10522;52.198;9.890;2023-04-28T03:57:05;12.23;;;4.30;;
20721;SDS011;10522;52.198;9.890;2023-04-28T03:59:31;8.00;;;4.03;;
20721;SDS011;10522;52.198;9.890;2023-04-28T04:01:57;7.87;;;4.87;;
20721;SDS011;10522;52.198;9.890;2023-04-28T04:04:22;5.77;;;4.50;;
20721;SDS011;10522;52.198;9.890;2023-04-28T04:06:48;6.93;;;5.00;;
20721;SDS011;10522;52.198;9.890;2023-04-28T04:09:14;7.20;;;4.43;;
20721;SDS011;10522;52.198;9.890;2023-04-28T04:11:40;10.40;;;4.50;;
20721;SDS011;10522;52.198;9.890;2023-04-28T04:14:05;8.03;;;4.77;;
20721;SDS011;10522;52.198;9.890;2023-04-28T04:16:31;5.00;;;4.03;;
20721;SDS011;10522;52.198;9.890;2023-04-28T04:18:57;7.93;;;4.40;;
20721;SDS011;10522;52.198;9.890;2023-04-28T04:21:22;10.37;;;5.10;;
20721;SDS011;10522;52.198;9.890;2023-04-28T04:23:48;7.37;;;4.50;;
20721;SDS011;10522;52.198;9.890;2023-04-28T04:26:13;8.60;;;4.33;;
20721;SDS011;10522;52.198;9.890;2023-04-28T04:28:39;8.77;;;4.63;;
20721;SDS011;10522;52.198;9.890;2023-04-28T04:31:05;10.33;;;4.70;;
20721;SDS011;10522;52.198;9.890;2023-04-28T04:33:31;9.83;;;4.80;;
20721;SDS011;10522;52.198;9.890;2023-04-28T04:35:57;10.60;;;4.67;;
20721;SDS011;10522;52.198;9.890;2023-04-28T04:38:22;8.50;;;4.53;;
20721;SDS011;10522;52.198;9.890;2023-04-28T04:40:48;8.50;;;4.70;;
20721;SDS011;10522;52.198;9.890;2023-04-28T04:43:13;8.77;;;5.03;;
20721;SDS011;10522;52.198;9.890;2023-04-28T04:45:39;9.40;;;4.60;;
20721;SDS011;10522;52.198;9.890;2023-04-28T04:48:05;9.30;;;4.50;;
20721;SDS011;10522;52.198;9.890;2023-04-28T04:50:30;8.33;;;4.30;;
20721;SDS011;10522;52.198;9.890;2023-04-28T04:52:56;8.97;;;4.50;;
20721;SDS011;10522;52.198;9.890;2023-04-28T04:55:22;7.37;;;4.20;;
20721;SDS011;10522;52.198;9.890;2023-04-28T04:57:47;8.20;;;4.63;;
20721;SDS011;10522;52.198;9.890;2023-04-28T05:00:13;13.10;;;5.37;;
20721;SDS011;10522;52.198;9.890;2023-04-28T05:02:40;11.47;;;4.60;;
20721;SDS011;10522;52.198;9.890;2023-04-28T05:05:06;10.90;;;4.93;;
20721;SDS011;10522;52.198;9.890;2023-04-28T05:07:32;9.63;;;4.97;;
20721;SDS011;10522;52.198;9.890;2023-04-28T05:09:58;14.87;;;4.73;;
20721;SDS011;10522;52.198;9.890;2023-04-28T05:12:24;10.90;;;4.97;;
20721;SDS011;10522;52.198;9.890;2023-04-28T05:14:50;13.13;;;5.27;;
20721;SDS011;10522;52.198;9.890;2023-04-28T05:17:16;11.00;;;5.47;;
20721;SDS011;10522;52.198;9.890;2023-04-28T05:19:41;12.17;;;5.67;;
20721;SDS011;10522;52.198;9.890;2023-04-28T05:22:07;7.77;;;5.40;;
20721;SDS011;10522;52.198;9.890;2023-04-28T05:24:33;11.90;;;5.23;;
20721;SDS011;10522;52.198;9.890;2023-04-28T05:26:58;15.10;;;5.23;;
20721;SDS011;10522;52.198;9.890;2023-04-28T05:29:24;7.33;;;4.97;;
20721;SDS011;10522;52.198;9.890;2023-04-28T05:31:49;9.97;;;5.47;;
20721;SDS011;10522;52.198;9.890;2023-04-28T05:34:15;11.53;;;5.40;;
20721;SDS011;10522;52.198;9.890;2023-04-28T05:36:41;7.17;;;5.27;;
20721;SDS011;10522;52.198;9.890;2023-04-28T05:39:06;9.20;;;4.83;;
20721;SDS011;10522;52.198;9.890;2023-04-28T05:41:33;15.40;;;5.33;;
20721;SDS011;10522;52.198;9.890;2023-04-28T05:44:00;16.20;;;5.80;;
20721;SDS011;10522;52.198;9.890;2023-04-28T05:46:26;10.90;;;5.47;;
20721;SDS011;10522;52.198;9.890;2023-04-28T05:48:51;12.50;;;5.00;;
20721;SDS011;10522;52.198;9.890;2023-04-28T05:51:17;11.23;;;4.83;;
20721;SDS011;10522;52.198;9.890;2023-04-28T05:53:42;8.73;;;5.57;;
20721;SDS011;10522;52.198;9.890;2023-04-28T05:56:12;22.30;;;5.90;;
20721;SDS011;10522;52.198;9.890;2023-04-28T05:58:38;11.27;;;5.80;;
20721;SDS011;10522;52.198;9.890;2023-04-28T06:01:04;10.57;;;5.00;;
20721;SDS011;10522;52.198;9.890;2023-04-28T06:03:29;13.17;;;5.63;;
20721;SDS011;10522;52.198;9.890;2023-04-28T06:05:55;13.30;;;5.70;;
20721;SDS011;10522;52.198;9.890;2023-04-28T06:08:21;12.83;;;5.57;;
20721;SDS011;10522;52.198;9.890;2023-04-28T06:10:46;7.07;;;5.40;;
20721;SDS011;10522;52.198;9.890;2023-04-28T06:13:12;14.93;;;5.83;;
20721;SDS011;10522;52.198;9.890;2023-04-28T06:15:38;12.90;;;5.60;;
20721;SDS011;10522;52.198;9.890;2023-04-28T06:18:03;12.77;;;5.40;;
20721;SDS011;10522;52.198;9.890;2023-04-28T06:20:31;8.97;;;5.57;;
20721;SDS011;10522;52.198;9.890;2023-04-28T06:22:56;11.33;;;6.23;;
20721;SDS011;10522;52.198;9.890;2023-04-28T06:25:22;21.23;;;6.30;;
20721;SDS011;10522;52.198;9.890;2023-04-28T06:27:48;13.77;;;6.53;;
20721;SDS011;10522;52.198;9.890;2023-04-28T06:30:17;10.43;;;6.33;;
20721;SDS011;10522;52.198;9.890;2023-04-28T06:32:44;19.13;;;6.73;;
20721;SDS011;10522;52.198;9.890;2023-04-28T06:35:10;10.00;;;5.63;;
20721;SDS011;10522;52.198;9.890;2023-04-28T06:37:36;15.33;;;7.17;;
20721;SDS011;10522;52.198;9.890;2023-04-28T06:40:02;11.47;;;6.33;;
20721;SDS011;10522;52.198;9.890;2023-04-28T06:42:27;14.07;;;6.40;;
20721;SDS011;10522;52.198;9.890;2023-04-28T06:44:53;14.30;;;6.53;;
20721;SDS011;10522;52.198;9.890;2023-04-28T06:47:19;11.43;;;6.03;;
20721;SDS011;10522;52.198;9.890;2023-04-28T06:49:45;10.13;;;5.60;;
20721;SDS011;10522;52.198;9.890;2023-04-28T06:52:14;14.40;;;6.20;;
20721;SDS011;10522;52.198;9.890;2023-04-28T06:54:40;11.30;;;5.73;;
20721;SDS011;10522;52.198;9.890;2023-04-28T06:57:06;15.30;;;6.40;;
20721;SDS011;10522;52.198;9.890;2023-04-28T06:59:32;11.10;;;6.10;;
20721;SDS011;10522;52.198;9.890;2023-04-28T07:01:57;9.73;;;5.47;;
20721;SDS011;10522;52.198;9.890;2023-04-28T07:04:23;14.10;;;6.13;;
20721;SDS011;10522;52.198;9.890;2023-04-28T07:06:49;9.33;;;6.10;;
20721;SDS011;10522;52.198;9.890;2023-04-28T07:09:14;10.77;;;7.00;;
20721;SDS011;10522;52.198;9.890;2023-04-28T07:11:41;8.83;;;5.47;;
20721;SDS011;10522;52.198;9.890;2023-04-28T07:14:08;10.37;;;5.57;;
20721;SDS011;10522;52.198;9.890;2023-04-28T07:16:33;11.10;;;6.47;;
20721;SDS011;10522;52.198;9.890;2023-04-28T07:18:59;10.27;;;5.80;;
20721;SDS011;10522;52.198;9.890;2023-04-28T07:21:25;12.63;;;5.97;;
20721;SDS011;10522;52.198;9.890;2023-04-28T07:23:52;15.77;;;6.53;;
20721;SDS011;10522;52.198;9.890;2023-04-28T07:26:21;11.57;;;6.10;;
20721;SDS011;10522;52.198;9.890;2023-04-28T07:28:47;14.07;;;5.70;;
20721;SDS011;10522;52.198;9.890;2023-04-28T07:31:12;10.37;;;6.00;;
20721;SDS011;10522;52.198;9.890;2023-04-28T07:33:38;8.13;;;5.80;;
20721;SDS011;10522;52.198;9.890;2023-04-28T07:36:04;11.97;;;5.97;;
20721;SDS011;10522;52.198;9.890;2023-04-28T07:38:32;15.03;;;6.63;;
20721;SDS011;10522;52.198;9.890;2023-04-28T07:40:59;14.87;;;5.97;;
20721;SDS011;10522;52.198;9.890;2023-04-28T07:43:24;14.03;;;7.33;;
20721;SDS011;10522;52.198;9.890;2023-04-28T07:45:50;9.40;;;6.90;;
20721;SDS011;10522;52.198;9.890;2023-04-28T07:48:16;11.70;;;6.30;;
20721;SDS011;10522;52.198;9.890;2023-04-28T07:50:41;11.53;;;6.03;;
20721;SDS011;10522;52.198;9.890;2023-04-28T07:53:07;13.10;;;6.03;;
20721;SDS011;10522;52.198;9.890;2023-04-28T07:55:33;12.87;;;5.60;;
20721;SDS011;10522;52.198;9.890;2023-04-28T07:57:58;9.97;;;5.93;;
20721;SDS011;10522;52.198;9.890;2023-04-28T08:00:24;11.67;;;6.03;;
20721;SDS011;10522;52.198;9.890;2023-04-28T08:02:50;12.13;;;6.43;;
20721;SDS011;10522;52.198;9.890;2023-04-28T08:05:16;11.10;;;7.27;;
20721;SDS011;10522;52.198;9.890;2023-04-28T08:07:42;9.53;;;5.90;;
20721;SDS011;10522;52.198;9.890;2023-04-28T08:10:10;12.73;;;6.20;;
20721;SDS011;10522;52.198;9.890;2023-04-28T08:12:36;11.17;;;6.27;;
20721;SDS011;10522;52.198;9.890;2023-04-28T08:15:02;9.87;;;6.13;;
20721;SDS011;10522;52.198;9.890;2023-04-28T08:17:28;12.97;;;6.03;;
20721;SDS011;10522;52.198;9.890;2023-04-28T08:19:54;13.80;;;6.10;;
20721;SDS011;10522;52.198;9.890;2023-04-28T08:22:19;14.00;;;7.00;;
20721;SDS011;10522;52.198;9.890;2023-04-28T08:24:45;9.13;;;6.17;;
20721;SDS011;10522;52.198;9.890;2023-04-28T08:27:11;13.23;;;7.03;;
20721;SDS011;10522;52.198;9.890;2023-04-28T08:29:36;9.33;;;6.73;;
20721;SDS011;10522;52.198;9.890;2023-04-28T08:32:04;10.40;;;6.80;;
20721;SDS011;10522;52.198;9.890;2023-04-28T08:34:30;15.00;;;7.47;;
20721;SDS011;10522;52.198;9.890;2023-04-28T08:36:56;14.20;;;7.60;;
20721;SDS011;10522;52.198;9.890;2023-04-28T08:39:22;12.10;;;7.10;;
20721;SDS011;10522;52.198;9.890;2023-04-28T08:41:50;14.93;;;7.07;;
20721;SDS011;10522;52.198;9.890;2023-04-28T08:44:16;11.70;;;6.77;;
20721;SDS011;10522;52.198;9.890;2023-04-28T08:46:42;13.03;;;7.27;;
20721;SDS011;10522;52.198;9.890;2023-04-28T08:49:16;13.83;;;6.93;;
20721;SDS011;10522;52.198;9.890;2023-04-28T08:51:48;11.77;;;6.73;;
20721;SDS011;10522;52.198;9.890;2023-04-28T08:54:19;10.30;;;6.97;;
20721;SDS011;10522;52.198;9.890;2023-04-28T08:56:47;14.63;;;7.50;;
20721;SDS011;10522;52.198;9.890;2023-04-28T08:59:13;12.47;;;7.10;;
20721;SDS011;10522;52.198;9.890;2023-04-28T09:01:39;12.27;;;7.20;;
20721;SDS011;10522;52.198;9.890;2023-04-28T09:04:05;12.60;;;7.20;;
20721;SDS011;10522;52.198;9.890;2023-04-28T09:06:32;13.93;;;7.67;;
20721;SDS011;10522;52.198;9.890;2023-04-28T09:12:01;16.73;;;7.77;;
20721;SDS011;10522;52.198;9.890;2023-04-28T09:14:28;12.43;;;7.27;;
20721;SDS011;10522;52.198;9.890;2023-04-28T09:16:58;14.20;;;7.90;;
20721;SDS011;10522;52.198;9.890;2023-04-28T09:19:31;12.57;;;7.03;;
20721;SDS011;10522;52.198;9.890;2023-04-28T09:21:58;15.33;;;8.00;;
20721;SDS011;10522;52.198;9.890;2023-04-28T09:26:54;13.47;;;7.83;;
20721;SDS011;10522;52.198;9.890;2023-04-28T09:29:20;12.23;;;6.97;;
20721;SDS011;10522;52.198;9.890;2023-04-28T09:31:45;14.37;;;6.97;;
20721;SDS011;10522;52.198;9.890;2023-04-28T09:34:11;12.13;;;6.87;;
20721;SDS011;10522;52.198;9.890;2023-04-28T09:36:37;11.37;;;7.73;;
20721;SDS011;10522;52.198;9.890;2023-04-28T09:39:02;12.00;;;6.97;;
20721;SDS011;10522;52.198;9.890;2023-04-28T09:41:41;15.50;;;7.30;;
20721;SDS011;10522;52.198;9.890;2023-04-28T09:44:11;12.27;;;7.03;;
20721;SDS011;10522;52.198;9.890;2023-04-28T09:46:38;13.37;;;7.00;;
20721;SDS011;10522;52.198;9.890;2023-04-28T09:49:04;14.27;;;7.83;;
20721;SDS011;10522;52.198;9.890;2023-04-28T09:51:29;15.60;;;7.60;;
20721;SDS011;10522;52.198;9.890;2023-04-28T09:53:55;14.33;;;7.70;;
20721;SDS011;10522;52.198;9.890;2023-04-28T09:56:26;19.53;;;7.43;;
20721;SDS011;10522;52.198;9.890;2023-04-28T09:58:52;14.40;;;7.23;;
20721;SDS011;10522;52.198;9.890;2023-04-28T10:01:20;14.20;;;7.20;;
20721;SDS011;10522;52.198;9.890;2023-04-28T10:03:46;13.37;;;7.57;;
20721;SDS011;10522;52.198;9.890;2023-04-28T10:06:13;16.07;;;6.70;;
20721;SDS011;10522;52.198;9.890;2023-04-28T10:08:40;10.33;;;6.63;;
20721;SDS011;10522;52.198;9.890;2023-04-28T10:11:05;12.00;;;6.27;;
20721;SDS011;10522;52.198;9.890;2023-04-28T10:13:33;14.33;;;6.33;;
20721;SDS011;10522;52.198;9.890;2023-04-28T10:15:59;12.47;;;7.20;;
20721;SDS011;10522;52.198;9.890;2023-04-28T10:18:26;10.13;;;6.83;;
20721;SDS011;10522;52.198;9.890;2023-04-28T10:20:57;10.57;;;7.13;;
20721;SDS011;10522;52.198;9.890;2023-04-28T10:25:54;12.40;;;6.87;;
20721;SDS011;10522;52.198;9.890;2023-04-28T10:28:23;9.73;;;6.67;;
20721;SDS011;10522;52.198;9.890;2023-04-28T10:31:08;17.47;;;8.03;;
20721;SDS011;10522;52.198;9.890;2023-04-28T10:33:38;12.50;;;7.00;;
20721;SDS011;10522;52.198;9.890;2023-04-28T10:36:05;11.77;;;7.40;;
20721;SDS011;10522;52.198;9.890;2023-04-28T10:38:31;12.40;;;6.70;;
20721;SDS011;10522;52.198;9.890;2023-04-28T10:40:57;14.73;;;7.30;;
20721;SDS011;10522;52.198;9.890;2023-04-28T10:49:02;14.33;;;8.30;;
20721;SDS011;10522;52.198;9.890;2023-04-28T10:56:16;12.03;;;7.63;;
20721;SDS011;10522;52.198;9.890;2023-04-28T11:08:44;15.97;;;9.77;;
20721;SDS011;10522;52.198;9.890;2023-04-28T11:13:37;17.03;;;9.13;;
20721;SDS011;10522;52.198;9.890;2023-04-28T11:16:02;18.57;;;9.77;;
20721;SDS011;10522;52.198;9.890;2023-04-28T11:18:28;17.77;;;8.70;;
20721;SDS011;10522;52.198;9.890;2023-04-28T11:20:56;15.27;;;8.73;;
20721;SDS011;10522;52.198;9.890;2023-04-28T11:23:22;13.47;;;8.50;;
20721;SDS011;10522;52.198;9.890;2023-04-28T11:25:55;10.87;;;8.13;;
20721;SDS011;10522;52.198;9.890;2023-04-28T11:28:21;14.73;;;9.23;;
20721;SDS011;10522;52.198;9.890;2023-04-28T11:30:47;12.07;;;8.40;;
20721;SDS011;10522;52.198;9.890;2023-04-28T11:33:13;15.83;;;8.80;;
20721;SDS011;10522;52.198;9.890;2023-04-28T11:35:42;11.53;;;7.93;;
20721;SDS011;10522;52.198;9.890;2023-04-28T11:38:07;11.73;;;8.83;;
20721;SDS011;10522;52.198;9.890;2023-04-28T11:40:33;13.97;;;8.00;;
20721;SDS011;10522;52.198;9.890;2023-04-28T11:42:59;16.73;;;9.43;;
20721;SDS011;10522;52.198;9.890;2023-04-28T11:45:25;18.73;;;9.73;;
20721;SDS011;10522;52.198;9.890;2023-04-28T11:47:51;12.20;;;8.27;;
20721;SDS011;10522;52.198;9.890;2023-04-28T11:50:16;13.27;;;8.90;;
20721;SDS011;10522;52.198;9.890;2023-04-28T11:52:59;16.03;;;9.23;;
20721;SDS011;10522;52.198;9.890;2023-04-28T11:55:25;14.67;;;9.20;;
20721;SDS011;10522;52.198;9.890;2023-04-28T12:01:09;15.77;;;9.60;;
20721;SDS011;10522;52.198;9.890;2023-04-28T12:03:43;14.63;;;9.23;;
20721;SDS011;10522;52.198;9.890;2023-04-28T12:06:08;15.13;;;9.50;;
20721;SDS011;10522;52.198;9.890;2023-04-28T12:08:34;20.30;;;9.40;;
20721;SDS011;10522;52.198;9.890;2023-04-28T12:11:09;15.60;;;9.40;;
20721;SDS011;10522;52.198;9.890;2023-04-28T12:13:40;16.03;;;9.73;;
20721;SDS011;10522;52.198;9.890;2023-04-28T12:16:06;14.63;;;9.83;;
20721;SDS011;10522;52.198;9.890;2023-04-28T12:18:33;14.60;;;10.00;;
20721;SDS011;10522;52.198;9.890;2023-04-28T12:21:02;20.87;;;10.47;;
20721;SDS011;10522;52.198;9.890;2023-04-28T12:23:33;16.57;;;9.97;;
20721;SDS011;10522;52.198;9.890;2023-04-28T12:26:00;13.43;;;9.53;;
20721;SDS011;10522;52.198;9.890;2023-04-28T12:28:38;16.33;;;9.87;;
20721;SDS011;10522;52.198;9.890;2023-04-28T12:31:07;16.53;;;9.80;;
20721;SDS011;10522;52.198;9.890;2023-04-28T12:33:33;16.33;;;9.93;;
20721;SDS011;10522;52.198;9.890;2023-04-28T12:36:03;18.10;;;10.30;;
20721;SDS011;10522;52.198;9.890;2023-04-28T12:38:32;15.43;;;10.33;;
20721;SDS011;10522;52.198;9.890;2023-04-28T12:40:57;15.33;;;10.30;;
20721;SDS011;10522;52.198;9.890;2023-04-28T12:43:24;16.50;;;10.37;;
20721;SDS011;10522;52.198;9.890;2023-04-28T12:45:52;15.17;;;9.67;;
20721;SDS011;10522;52.198;9.890;2023-04-28T12:48:19;17.93;;;10.50;;
20721;SDS011;10522;52.198;9.890;2023-04-28T12:50:44;19.10;;;10.87;;
20721;SDS011;10522;52.198;9.890;2023-04-28T12:53:10;15.97;;;10.23;;
20721;SDS011;10522;52.198;9.890;2023-04-28T12:55:36;16.30;;;9.27;;
20721;SDS011;10522;52.198;9.890;2023-04-28T12:58:04;16.17;;;9.50;;
20721;SDS011;10522;52.198;9.890;2023-04-28T13:00:30;12.77;;;9.40;;
20721;SDS011;10522;52.198;9.890;2023-04-28T13:02:56;10.63;;;7.73;;
20721;SDS011;10522;52.198;9.890;2023-04-28T13:05:22;12.47;;;6.83;;
20721;SDS011;10522;52.198;9.890;2023-04-28T13:07:48;11.37;;;7.10;;
20721;SDS011;10522;52.198;9.890;2023-04-28T13:10:14;12.20;;;8.57;;
20721;SDS011;10522;52.198;9.890;2023-04-28T13:12:40;15.20;;;7.83;;
20721;SDS011;10522;52.198;9.890;2023-04-28T13:15:06;14.10;;;7.60;;
20721;SDS011;10522;52.198;9.890;2023-04-28T13:17:32;11.37;;;8.33;;
20721;SDS011;10522;52.198;9.890;2023-04-28T13:19:59;14.90;;;8.13;;
20721;SDS011;10522;52.198;9.890;2023-04-28T13:22:25;11.57;;;7.47;;
20721;SDS011;10522;52.198;9.890;2023-04-28T13:24:51;12.60;;;7.67;;
20721;SDS011;10522;52.198;9.890;2023-04-28T13:27:16;11.60;;;7.93;;
20721;SDS011;10522;52.198;9.890;2023-04-28T13:29:42;15.43;;;8.07;;
20721;SDS011;10522;52.198;9.890;2023-04-28T13:32:08;13.67;;;7.50;;
20721;SDS011;10522;52.198;9.890;2023-04-28T13:34:34;11.63;;;7.13;;
20721;SDS011;10522;52.198;9.890;2023-04-28T13:37:01;15.40;;;7.90;;
20721;SDS011;10522;52.198;9.890;2023-04-28T13:39:27;14.27;;;6.53;;
20721;SDS011;10522;52.198;9.890;2023-04-28T13:41:53;13.97;;;8.17;;
20721;SDS011;10522;52.198;9.890;2023-04-28T13:44:18;13.50;;;7.93;;
20721;SDS011;10522;52.198;9.890;2023-04-28T13:46:45;12.83;;;8.10;;
20721;SDS011;10522;52.198;9.890;2023-04-28T13:49:11;11.83;;;7.50;;
20721;SDS011;10522;52.198;9.890;2023-04-28T13:51:37;10.60;;;7.20;;
20721;SDS011;10522;52.198;9.890;2023-04-28T13:54:03;10.70;;;8.27;;
20721;SDS011;10522;52.198;9.890;2023-04-28T13:56:29;13.70;;;8.63;;
20721;SDS011;10522;52.198;9.890;2023-04-28T13:58:56;11.17;;;8.10;;
20721;SDS011;10522;52.198;9.890;2023-04-28T14:01:21;19.67;;;8.80;;
20721;SDS011;10522;52.198;9.890;2023-04-28T14:03:47;14.40;;;8.00;;
20721;SDS011;10522;52.198;9.890;2023-04-28T14:06:13;14.80;;;8.93;;
20721;SDS011;10522;52.198;9.890;2023-04-28T14:08:38;15.93;;;8.80;;
20721;SDS011;10522;52.198;9.890;2023-04-28T14:11:04;16.77;;;9.63;;
20721;SDS011;10522;52.198;9.890;2023-04-28T14:13:30;15.00;;;9.57;;
20721;SDS011;10522;52.198;9.890;2023-04-28T14:15:55;14.80;;;9.53;;
20721;SDS011;10522;52.198;9.890;2023-04-28T14:18:22;17.27;;;9.50;;
20721;SDS011;10522;52.198;9.890;2023-04-28T14:20:47;15.10;;;9.80;;
20721;SDS011;10522;52.198;9.890;2023-04-28T14:23:13;13.13;;;9.60;;
20721;SDS011;10522;52.198;9.890;2023-04-28T14:25:39;18.40;;;10.17;;
20721;SDS011;10522;52.198;9.890;2023-04-28T14:28:05;13.50;;;9.10;;
20721;SDS011;10522;52.198;9.890;2023-04-28T14:30:31;16.53;;;9.70;;
20721;SDS011;10522;52.198;9.890;2023-04-28T14:32:56;16.97;;;9.77;;
20721;SDS011;10522;52.198;9.890;2023-04-28T14:35:23;17.13;;;9.30;;
20721;SDS011;10522;52.198;9.890;2023-04-28T14:37:48;13.70;;;9.97;;
20721;SDS011;10522;52.198;9.890;2023-04-28T14:40:15;16.57;;;10.37;;
20721;SDS011;10522;52.198;9.890;2023-04-28T14:42:41;13.63;;;9.97;;
20721;SDS011;10522;52.198;9.890;2023-04-28T14:45:08;18.33;;;10.13;;
20721;SDS011;10522;52.198;9.890;2023-04-28T14:47:38;15.40;;;10.20;;
20721;SDS011;10522;52.198;9.890;2023-04-28T14:50:04;13.93;;;10.03;;
20721;SDS011;10522;52.198;9.890;2023-04-28T14:52:30;19.43;;;9.97;;
20721;SDS011;10522;52.198;9.890;2023-04-28T14:54:57;17.37;;;10.80;;
20721;SDS011;10522;52.198;9.890;2023-04-28T14:57:24;17.60;;;10.00;;
20721;SDS011;10522;52.198;9.890;2023-04-28T14:59:51;19.03;;;10.03;;
20721;SDS011;10522;52.198;9.890;2023-04-28T15:02:18;15.60;;;9.30;;
20721;SDS011;10522;52.198;9.890;2023-04-28T15:04:45;13.33;;;9.40;;
20721;SDS011;10522;52.198;9.890;2023-04-28T15:07:12;17.70;;;8.97;;